Time;durP1;ratioP1;P1;durP2;ratioP2;P2;SDS_P1;SDS_P2;PMS_P1;PMS_P2;Temp;Humidity;BMP_temperature;BMP_pressure;BME280_temperature;BME280_humidity;BME280_pressure;Samples;Min_cycle;Max_cycle;Signal;HPM_P1;HPM_P2
2021/07/08 00:00:39;;;;;;;9.30;3.22;;;;;;;16.18;100.00;101273.66;4978346;28;20420;-91
2021/07/08 00:03:06;;;;;;;3.45;3.15;;;;;;;16.18;100.00;101281.56;4964383;28;20054;-88
2021/07/08 00:05:44;;;;;;;3.30;2.97;;;;;;;16.16;100.00;101286.00;4971400;28;20082;-91
2021/07/08 00:08:19;;;;;;;4.80;3.58;;;;;;;16.16;100.00;101280.72;5005434;28;20100;-89
2021/07/08 00:12:09;;;;;;;6.45;3.47;;;;;;;16.15;100.00;101268.44;4994745;28;20053;-88
2021/07/08 00:14:55;;;;;;;5.15;3.83;;;;;;;16.15;100.00;101267.56;5012410;28;20068;-88
2021/07/08 00:17:28;;;;;;;5.22;3.17;;;;;;;16.14;100.00;101261.41;4996639;28;20081;-85
2021/07/08 00:19:55;;;;;;;5.28;2.85;;;;;;;16.14;100.00;101268.44;4939699;28;20081;-89
2021/07/08 00:22:22;;;;;;;4.95;3.53;;;;;;;16.10;100.00;101259.75;4975284;28;20049;-91
2021/07/08 00:24:50;;;;;;;10.25;7.22;;;;;;;16.09;100.00;101265.03;4948083;28;20054;-87
2021/07/08 00:27:16;;;;;;;5.57;4.35;;;;;;;16.04;100.00;101250.16;4960186;28;20038;-89
2021/07/08 00:29:43;;;;;;;8.23;4.32;;;;;;;16.01;100.00;101252.88;4953495;28;20046;-90
2021/07/08 00:32:10;;;;;;;5.25;3.90;;;;;;;16.01;100.00;101265.25;4944842;28;20074;-91
2021/07/08 00:34:37;;;;;;;8.10;3.78;;;;;;;16.00;100.00;101258.22;4967963;28;21134;-87
2021/07/08 00:37:05;;;;;;;9.23;3.70;;;;;;;16.00;100.00;101263.50;4967365;28;20050;-89
2021/07/08 00:39:31;;;;;;;3.88;3.45;;;;;;;15.99;100.00;101259.97;4974591;28;20053;-90
2021/07/08 00:41:59;;;;;;;6.18;2.95;;;;;;;15.99;100.00;101256.47;4970588;28;20048;-90
2021/07/08 00:44:29;;;;;;;3.78;3.47;;;;;;;15.98;100.00;101255.63;4983487;28;20047;-91
2021/07/08 00:46:56;;;;;;;6.55;3.30;;;;;;;15.98;100.00;101249.44;4974551;28;20098;-87
2021/07/08 00:49:26;;;;;;;7.05;4.28;;;;;;;15.99;100.00;101244.13;4969970;28;20055;-89
2021/07/08 00:51:57;;;;;;;7.47;3.60;;;;;;;15.98;100.00;101234.50;4977595;28;20049;-90
2021/07/08 00:54:26;;;;;;;3.60;3.08;;;;;;;15.99;100.00;101236.19;4976468;28;20043;-90
2021/07/08 00:56:59;;;;;;;5.85;3.80;;;;;;;16.01;100.00;101237.03;4997875;28;20042;-86
2021/07/08 00:59:26;;;;;;;7.72;5.88;;;;;;;16.02;100.00;101235.25;4988528;28;20030;-93
2021/07/08 01:01:58;;;;;;;5.80;3.55;;;;;;;16.05;100.00;101237.84;4991438;28;20059;-92
2021/07/08 01:04:26;;;;;;;5.30;3.47;;;;;;;16.08;100.00;101239.56;4968972;28;20074;-88
2021/07/08 01:06:57;;;;;;;3.40;2.83;;;;;;;16.12;100.00;101252.66;4964835;28;20043;-88
2021/07/08 01:09:28;;;;;;;5.10;3.40;;;;;;;16.16;100.00;101241.09;4971488;28;20690;-91
2021/07/08 01:11:59;;;;;;;4.18;3.13;;;;;;;16.22;99.75;101250.69;4993535;28;20039;-92
2021/07/08 01:14:29;;;;;;;3.47;3.20;;;;;;;16.29;99.36;101249.63;4990295;28;20097;-87
2021/07/08 01:16:56;;;;;;;3.95;2.92;;;;;;;16.34;98.98;101246.88;4965576;28;20050;-91
2021/07/08 01:19:25;;;;;;;3.90;3.22;;;;;;;16.38;98.52;101249.41;4980615;28;20050;-87
2021/07/08 01:21:55;;;;;;;4.80;3.05;;;;;;;16.41;98.17;101240.53;4979958;28;20055;-91
2021/07/08 01:24:26;;;;;;;6.03;2.97;;;;;;;16.45;97.89;101249.25;4969711;28;20101;-87
2021/07/08 01:26:54;;;;;;;2.95;2.55;;;;;;;16.46;97.69;101249.22;4991411;28;20743;-89
2021/07/08 01:29:22;;;;;;;3.75;2.50;;;;;;;16.48;97.45;101243.91;4995047;28;20062;-90
2021/07/08 01:31:50;;;;;;;3.85;2.85;;;;;;;16.50;97.15;101240.34;4976533;28;20054;-90
2021/07/08 01:34:18;;;;;;;5.22;3.30;;;;;;;16.51;96.75;101236.75;4964035;28;20046;-89
2021/07/08 01:36:47;;;;;;;4.43;2.45;;;;;;;16.51;96.54;101236.75;4991397;28;20050;-88
2021/07/08 01:39:19;;;;;;;5.38;2.70;;;;;;;16.51;96.16;101231.47;4968380;28;20055;-93
2021/07/08 01:41:47;;;;;;;3.30;2.45;;;;;;;16.49;96.33;101230.66;5000905;28;20031;-92
2021/07/08 01:44:16;;;;;;;8.75;2.80;;;;;;;16.47;96.04;101229.81;4990091;28;20069;-89
2021/07/08 01:46:46;;;;;;;2.58;2.22;;;;;;;16.45;96.17;101231.66;4967599;28;20661;-89
2021/07/08 01:49:16;;;;;;;4.47;2.75;;;;;;;16.43;95.80;101225.50;4976293;28;20038;-87
2021/07/08 01:51:47;;;;;;;4.60;2.53;;;;;;;16.42;95.66;101223.78;4979639;28;20053;-87
2021/07/08 01:54:17;;;;;;;4.55;2.58;;;;;;;16.42;95.29;101220.28;4976875;28;20125;-87
2021/07/08 01:56:47;;;;;;;5.22;2.78;;;;;;;16.43;95.18;101229.94;4963936;28;20054;-90
2021/07/08 01:59:20;;;;;;;7.38;3.13;;;;;;;16.43;95.28;101237.88;4962825;28;20081;-89
2021/07/08 02:01:49;;;;;;;9.77;2.67;;;;;;;16.42;95.07;101234.34;4953502;28;20062;-89
2021/07/08 02:04:17;;;;;;;2.58;2.38;;;;;;;16.38;94.64;101228.25;4964418;28;20505;-87
2021/07/08 02:06:45;;;;;;;3.42;2.92;;;;;;;16.36;94.61;101226.56;4978397;28;20105;-89
2021/07/08 02:09:12;;;;;;;3.55;2.15;;;;;;;16.35;94.62;101230.97;4980656;28;20109;-89
2021/07/08 02:11:41;;;;;;;4.85;2.70;;;;;;;16.31;94.54;101237.25;4960263;28;20050;-90
2021/07/08 02:14:10;;;;;;;5.90;2.40;;;;;;;16.30;94.23;101239.94;4945247;28;20102;-91
2021/07/08 02:16:38;;;;;;;3.55;2.58;;;;;;;16.29;94.47;101239.03;4955210;28;20057;-88
2021/07/08 02:19:07;;;;;;;3.08;2.40;;;;;;;16.28;94.20;101234.69;4977919;28;20066;-89
2021/07/08 02:21:37;;;;;;;7.07;3.08;;;;;;;16.26;94.05;101246.19;4971246;28;20049;-92
2021/07/08 02:24:07;;;;;;;4.45;2.78;;;;;;;16.25;94.07;101247.09;4991448;28;20043;-90
2021/07/08 02:26:37;;;;;;;3.92;2.30;;;;;;;16.23;94.16;101251.53;4965822;28;20046;-88
2021/07/08 02:29:09;;;;;;;5.13;2.90;;;;;;;16.19;94.55;101256.00;4994062;28;20141;-92
2021/07/08 02:31:37;;;;;;;4.72;2.55;;;;;;;16.16;94.43;101262.22;4974448;28;20050;-87
2021/07/08 02:34:07;;;;;;;4.00;2.45;;;;;;;16.15;94.44;101263.16;4959099;28;20046;-88
2021/07/08 02:36:35;;;;;;;2.83;2.28;;;;;;;16.14;94.45;101261.41;4948973;28;20058;-93
2021/07/08 02:39:06;;;;;;;9.65;2.53;;;;;;;16.17;94.44;101258.69;4986393;28;20043;-89
2021/07/08 02:41:33;;;;;;;2.92;2.20;;;;;;;16.20;94.22;101255.13;4986578;28;20061;-91
2021/07/08 02:44:07;;;;;;;4.97;2.50;;;;;;;16.24;93.87;101255.91;4980741;28;20047;-88
2021/07/08 02:46:36;;;;;;;3.45;2.13;;;;;;;16.26;93.80;101259.41;4963780;28;20054;-91
2021/07/08 02:49:07;;;;;;;6.55;2.58;;;;;;;16.26;93.75;101248.84;4979103;28;20050;-88
2021/07/08 02:51:35;;;;;;;8.52;3.63;;;;;;;16.26;93.53;101248.84;4976364;28;20133;-89
2021/07/08 02:54:09;;;;;;;9.13;3.40;;;;;;;16.26;93.37;101248.84;4984965;28;20396;-87
2021/07/08 02:56:38;;;;;;;4.18;2.65;;;;;;;16.25;93.26;101242.66;4982873;28;20030;-87
2021/07/08 02:59:06;;;;;;;2.35;2.03;;;;;;;16.26;93.11;101246.19;4967176;28;21060;-89
2021/07/08 03:01:35;;;;;;;4.63;2.80;;;;;;;16.28;93.13;101244.38;4977182;28;20050;-90
2021/07/08 03:04:05;;;;;;;4.80;2.70;;;;;;;16.30;93.30;101239.94;4959594;28;20070;-90
2021/07/08 03:06:38;;;;;;;7.10;3.22;;;;;;;16.32;92.96;101246.03;4965922;28;20042;-94
2021/07/08 03:09:09;;;;;;;6.68;2.67;;;;;;;16.35;93.01;101248.63;4985807;28;20113;-89
2021/07/08 03:11:37;;;;;;;2.78;2.28;;;;;;;16.38;92.79;101245.91;4979232;28;20484;-88
2021/07/08 03:14:09;;;;;;;4.03;2.42;;;;;;;16.38;92.48;101244.09;4987912;28;20042;-89
2021/07/08 03:16:36;;;;;;;2.30;2.08;;;;;;;16.37;92.26;101244.16;4993845;28;20037;-92
2021/07/08 03:19:08;;;;;;;5.10;2.40;;;;;;;16.35;92.27;101238.06;5001659;28;20047;-90
2021/07/08 03:21:37;;;;;;;6.00;2.58;;;;;;;16.31;92.82;101244.28;4991802;28;20054;-90
2021/07/08 03:24:07;;;;;;;3.25;2.58;;;;;;;16.27;92.71;101242.63;4982844;28;20481;-86
2021/07/08 03:26:37;;;;;;;4.68;2.78;;;;;;;16.27;92.91;101250.56;4975956;28;20141;-89
2021/07/08 03:29:09;;;;;;;3.33;2.55;;;;;;;16.28;93.08;101253.19;4968107;28;20050;-89
2021/07/08 03:31:36;;;;;;;3.28;2.53;;;;;;;16.29;92.85;101254.91;4999263;28;20065;-87
2021/07/08 03:34:07;;;;;;;5.53;3.03;;;;;;;16.31;92.71;101254.84;4985182;28;20242;-86
2021/07/08 03:36:37;;;;;;;5.40;2.60;;;;;;;16.33;92.76;101263.63;4992812;28;20796;-90
2021/07/08 03:39:08;;;;;;;6.45;3.42;;;;;;;16.35;92.97;101277.69;4997932;28;20042;-90
2021/07/08 03:41:41;;;;;;;3.72;2.67;;;;;;;16.35;92.94;101265.34;4987390;28;20050;-89
2021/07/08 03:44:09;;;;;;;6.65;3.40;;;;;;;16.34;92.68;101263.59;4982632;28;20065;-91
2021/07/08 03:46:39;;;;;;;4.10;2.80;;;;;;;16.33;92.82;101275.06;4967973;28;20640;-89
2021/07/08 03:49:16;;;;;;;4.72;2.47;;;;;;;16.33;92.72;101277.69;4972897;28;20478;-87
2021/07/08 03:51:49;;;;;;;4.57;2.63;;;;;;;16.35;92.79;101280.31;5002391;28;20790;-87
2021/07/08 03:54:17;;;;;;;6.57;2.92;;;;;;;16.40;92.69;101289.03;4987298;28;20046;-88
2021/07/08 03:56:44;;;;;;;3.95;2.90;;;;;;;16.47;92.30;101273.88;4960876;28;20057;-87
2021/07/08 03:59:17;;;;;;;5.28;2.78;;;;;;;16.52;92.19;101282.56;4982487;28;20050;-93
2021/07/08 04:01:51;;;;;;;2.30;2.05;;;;;;;16.53;92.00;101271.06;4992699;28;20121;-90
2021/07/08 04:04:19;;;;;;;3.33;2.40;;;;;;;16.54;92.13;101276.34;4990827;28;20120;-89
2021/07/08 04:06:56;;;;;;;3.58;2.30;;;;;;;16.55;91.86;101277.22;4983395;28;20046;-89
2021/07/08 04:09:28;;;;;;;4.22;3.42;;;;;;;16.54;91.81;101279.00;4982988;28;20050;-89
2021/07/08 04:11:57;;;;;;;4.25;2.38;;;;;;;16.52;92.22;101287.84;4968126;28;20038;-91
2021/07/08 04:14:28;;;;;;;5.00;2.85;;;;;;;16.49;92.60;101286.16;4989838;28;20471;-91
2021/07/08 04:17:01;;;;;;;4.82;3.17;;;;;;;16.47;92.61;101293.25;4948376;28;20089;-92
2021/07/08 04:19:37;;;;;;;8.40;2.90;;;;;;;16.46;92.39;101290.63;4969755;28;20061;-90
2021/07/08 04:22:07;;;;;;;8.63;3.60;;;;;;;16.44;92.37;101301.25;4998977;28;20047;-93
2021/07/08 04:24:36;;;;;;;5.32;2.25;;;;;;;16.46;92.17;101307.34;4997163;28;20046;-92
2021/07/08 04:27:06;;;;;;;5.70;2.90;;;;;;;16.47;92.24;101303.81;4987173;28;20050;-92
2021/07/08 04:29:36;;;;;;;6.53;2.42;;;;;;;16.49;91.94;101301.13;4983082;28;20058;-90
2021/07/08 04:32:10;;;;;;;2.47;2.35;;;;;;;16.51;91.81;101302.81;4983696;28;20046;-90
2021/07/08 04:34:41;;;;;;;;;;;;;;;16.57;91.82;101293.03;4984010;28;20603;-90
2021/07/08 04:37:09;;;;;;;3.67;2.83;;;;;;;16.62;91.28;101293.78;4984960;28;19929;-93
2021/07/08 04:39:40;;;;;;;9.32;2.00;;;;;;;16.67;91.47;101295.44;4994047;28;20062;-88
2021/07/08 04:42:10;;;;;;;6.72;2.88;;;;;;;16.74;91.63;101293.50;4988211;28;20133;-90
2021/07/08 04:44:38;;;;;;;6.93;3.17;;;;;;;16.82;91.09;101291.53;4957888;28;20077;-90
2021/07/08 04:47:09;;;;;;;3.38;2.15;;;;;;;16.91;90.70;101294.88;4963396;28;20053;-93
2021/07/08 04:49:39;;;;;;;9.02;2.22;;;;;;;16.99;90.38;101288.50;4957096;28;20050;-89
2021/07/08 04:52:09;;;;;;;4.10;2.40;;;;;;;17.06;89.89;101289.19;4977643;28;20053;-90
2021/07/08 04:54:37;;;;;;;5.30;3.00;;;;;;;17.11;89.69;101289.94;4974547;28;20057;-93
2021/07/08 04:57:16;;;;;;;;;;;;;;;;;;;;;
2021/07/08 04:59:48;;;;;;;3.58;2.88;;;;;;;17.17;88.99;101284.50;4961909;28;20616;-89
2021/07/08 05:02:28;;;;;;;4.55;2.08;;;;;;;17.19;88.63;101277.41;4981505;28;20936;-89
2021/07/08 05:04:56;;;;;;;8.02;2.65;;;;;;;17.24;88.23;101274.63;4956805;28;20050;-93
2021/07/08 05:07:29;;;;;;;1.95;1.73;;;;;;;17.31;87.79;101267.38;4990440;28;20076;-91
2021/07/08 05:09:56;;;;;;;6.90;2.88;;;;;;;17.39;87.44;101272.47;4959097;28;20436;-93
2021/07/08 05:12:29;;;;;;;3.60;2.15;;;;;;;17.49;87.27;101273.94;4960219;28;20050;-90
2021/07/08 05:14:57;;;;;;;5.80;2.97;;;;;;;17.61;87.03;101275.38;4981901;28;20069;-91
2021/07/08 05:17:27;;;;;;;2.50;2.30;;;;;;;17.75;86.28;101275.00;4968743;28;20058;-89
2021/07/08 05:20:00;;;;;;;3.80;2.42;;;;;;;17.89;85.59;101283.41;4975107;28;20046;-93
2021/07/08 05:22:37;;;;;;;4.35;2.72;;;;;;;18.03;85.53;101285.69;4975957;28;20156;-92
2021/07/08 05:25:10;;;;;;;4.72;2.17;;;;;;;18.17;84.87;101287.88;4956664;28;20061;-89
2021/07/08 05:27:38;;;;;;;3.05;2.83;;;;;;;18.27;84.23;101289.34;4977106;28;20516;-89
2021/07/08 05:30:10;;;;;;;3.58;2.15;;;;;;;18.39;83.70;101296.03;4963127;28;20114;-88
2021/07/08 05:32:42;;;;;;;5.60;3.00;;;;;;;18.48;83.40;101301.06;4976906;28;20059;-89
2021/07/08 05:35:17;;;;;;;5.15;2.80;;;;;;;18.56;83.30;101302.59;4973954;28;20089;-92
2021/07/08 05:37:48;;;;;;;3.35;2.65;;;;;;;18.63;83.13;101312.09;4963386;28;20413;-94
2021/07/08 05:40:20;;;;;;;3.90;3.35;;;;;;;18.70;82.92;101299.53;4976772;28;20038;-91
2021/07/08 05:43:00;;;;;;;7.60;3.00;;;;;;;18.72;83.25;101314.47;4980011;28;20141;-88
2021/07/08 05:45:27;;;;;;;9.00;2.92;;;;;;;18.74;83.60;101317.91;4954120;28;20602;-92
2021/07/08 05:47:59;;;;;;;3.45;2.53;;;;;;;18.77;84.02;101324.91;4962028;28;20663;-90
2021/07/08 05:50:27;;;;;;;5.82;2.72;;;;;;;18.81;83.92;101329.19;4988295;28;20054;-91
2021/07/08 05:52:59;;;;;;;7.13;4.03;;;;;;;18.83;84.04;101332.66;4982551;28;20049;-91
2021/07/08 05:55:30;;;;;;;4.97;3.00;;;;;;;18.87;83.95;101336.09;4979064;28;20061;-89
2021/07/08 05:58:22;;;;;;;;;;;;;;;;;;;;;
2021/07/08 06:00:59;;;;;;;3.42;3.13;;;;;;;18.96;83.60;101330.53;4926184;28;20042;-88
2021/07/08 06:03:49;;;;;;;10.75;3.92;;;;;;;19.03;83.27;101337.34;4969006;28;20054;-89
2021/07/08 06:06:31;;;;;;;;;;;;;;;;;;;;;
2021/07/08 06:09:28;;;;;;;6.22;3.78;;;;;;;19.28;82.33;101328.53;4967093;28;20445;-91
2021/07/08 06:11:59;;;;;;;7.03;3.13;;;;;;;19.39;81.54;101331.69;4959690;28;20046;-88
2021/07/08 06:14:28;;;;;;;8.38;2.65;;;;;;;19.49;80.26;101322.50;4962525;28;20042;-91
2021/07/08 06:16:58;;;;;;;16.15;2.95;;;;;;;19.60;79.30;101327.41;4982701;28;20080;-90
2021/07/08 06:19:27;;;;;;;10.48;3.00;;;;;;;19.70;78.34;101333.25;4947236;28;20057;-90
2021/07/08 06:21:58;;;;;;;5.93;2.92;;;;;;;19.79;77.65;101324.97;4946107;28;20468;-86
2021/07/08 06:24:27;;;;;;;7.68;3.08;;;;;;;19.90;76.96;101337.00;4981257;28;20094;-91
2021/07/08 06:27:01;;;;;;;6.82;3.15;;;;;;;19.99;76.15;101336.66;4979219;28;20111;-93
2021/07/08 06:29:28;;;;;;;4.32;2.65;;;;;;;20.05;75.21;101333.78;4977170;28;20301;-92
2021/07/08 06:31:57;;;;;;;4.38;2.05;;;;;;;20.14;74.81;101336.09;4971035;28;20066;-93
2021/07/08 06:34:29;;;;;;;10.80;2.28;;;;;;;20.20;74.25;101339.44;4980945;28;20080;-90
2021/07/08 06:36:58;;;;;;;3.58;2.13;;;;;;;20.24;74.18;101349.03;4957820;28;20049;-89
2021/07/08 06:39:27;;;;;;;3.72;2.92;;;;;;;20.28;73.47;101347.97;4958416;28;20061;-88
2021/07/08 06:41:58;;;;;;;5.32;3.20;;;;;;;20.30;73.10;101340.81;4974137;28;20532;-89
2021/07/08 06:44:37;;;;;;;5.03;3.08;;;;;;;20.32;72.84;101341.59;4977164;28;20070;-89
2021/07/08 06:47:10;;;;;;;5.38;3.13;;;;;;;20.40;72.62;101333.34;4972945;28;20121;-92
2021/07/08 06:49:39;;;;;;;10.75;3.45;;;;;;;20.50;72.32;101337.38;4958161;28;20097;-92
2021/07/08 06:52:22;;;;;;;;;;;;;;;;;;;;;
2021/07/08 06:54:49;;;;;;;11.00;3.20;;;;;;;20.57;71.76;101340.63;4956535;28;20057;-88
2021/07/08 06:57:18;;;;;;;11.23;3.33;;;;;;;20.58;71.24;101337.06;4974130;28;20523;-92
2021/07/08 06:59:48;;;;;;;7.20;3.75;;;;;;;20.54;71.07;101341.63;4973878;28;20124;-90
2021/07/08 07:02:19;;;;;;;11.75;4.80;;;;;;;20.55;71.39;101354.00;4965738;28;20061;-90
2021/07/08 07:04:49;;;;;;;7.72;3.50;;;;;;;20.60;71.18;101368.00;4975800;28;20090;-90
2021/07/08 07:07:37;;;;;;;5.25;3.78;;;;;;;20.61;70.26;101358.22;4976320;28;20428;-92
2021/07/08 07:10:08;;;;;;;9.77;3.35;;;;;;;20.62;69.28;101349.31;4972619;28;20047;-89
2021/07/08 07:12:47;;;;;;;5.97;2.95;;;;;;;20.62;69.38;101354.63;4977201;28;20386;-91
2021/07/08 07:15:32;;;;;;;3.97;2.33;;;;;;;20.78;68.72;101358.44;4980016;28;20413;-91
2021/07/08 07:18:04;;;;;;;4.43;1.98;;;;;;;21.06;68.07;101353.78;4979232;28;20058;-90
2021/07/08 07:20:41;;;;;;;9.38;3.05;;;;;;;21.38;67.13;101348.88;4981219;28;20045;-90
2021/07/08 07:23:09;;;;;;;8.30;2.60;;;;;;;21.62;66.64;101355.81;4974598;28;20054;-91
2021/07/08 07:25:48;;;;;;;3.38;2.30;;;;;;;21.85;66.47;101353.94;4974471;28;20117;-90
2021/07/08 07:28:18;;;;;;;10.43;2.75;;;;;;;22.05;66.25;101352.16;4987888;28;20046;-91
2021/07/08 07:30:51;;;;;;;7.57;3.15;;;;;;;22.17;65.58;101353.41;4957620;28;20058;-91
2021/07/08 07:33:20;;;;;;;6.78;2.85;;;;;;;22.22;65.81;101351.38;4954224;28;20050;-92
2021/07/08 07:35:47;;;;;;;7.25;3.03;;;;;;;22.25;65.28;101352.09;4969780;28;20176;-93
2021/07/08 07:38:18;;;;;;;4.50;2.80;;;;;;;22.31;65.21;101356.28;4978641;28;20411;-92
2021/07/08 07:40:52;;;;;;;4.30;2.78;;;;;;;22.50;64.51;101350.94;4971513;28;20073;-88
2021/07/08 07:43:18;;;;;;;4.13;2.13;;;;;;;22.90;63.48;101364.16;4974869;28;20145;-91
2021/07/08 07:45:50;;;;;;;5.05;2.47;;;;;;;23.29;62.35;101366.66;4963052;28;20042;-90
2021/07/08 07:48:58;;;;;;;2.67;2.47;;;;;;;23.58;60.23;101366.97;4981632;28;20042;-88
2021/07/08 07:51:28;;;;;;;12.68;2.97;;;;;;;23.76;58.52;101364.25;4996589;28;20051;-89
2021/07/08 07:53:59;;;;;;;5.13;2.42;;;;;;;23.83;57.73;101364.78;4984369;28;20046;-90
2021/07/08 07:56:28;;;;;;;3.67;2.03;;;;;;;23.86;57.71;101364.66;4995454;28;20074;-89
2021/07/08 07:59:11;;;;;;;4.03;2.05;;;;;;;23.88;56.29;101368.94;5006285;28;20058;-92
2021/07/08 08:01:40;;;;;;;;;;;;;;;23.95;56.27;101365.03;4976786;28;20058;-90
2021/07/08 08:04:09;;;;;;;4.05;2.35;;;;;;;24.13;54.88;101353.41;4995975;28;19929;-91
2021/07/08 08:09:47;;;;;;;6.65;2.13;;;;;;;24.05;55.42;101362.75;4966221;28;20344;-89
2021/07/08 08:12:17;;;;;;;3.70;2.42;;;;;;;24.10;55.26;101370.50;4974907;28;20082;-89
2021/07/08 08:14:58;;;;;;;7.25;2.65;;;;;;;24.05;55.50;101378.78;4980504;28;20113;-88
2021/07/08 08:17:29;;;;;;;5.57;2.05;;;;;;;23.95;56.20;101370.38;4970804;28;20108;-88
2021/07/08 08:20:30;;;;;;;5.05;2.75;;;;;;;23.87;56.27;101383.28;4970946;28;20050;-89
2021/07/08 08:22:59;;;;;;;7.13;2.13;;;;;;;23.80;56.59;101379.19;5008349;28;20049;-88
2021/07/08 08:28:20;;;;;;;5.85;2.15;;;;;;;23.85;55.88;101385.16;4993872;28;20054;-88
2021/07/08 08:30:58;;;;;;;5.05;2.15;;;;;;;23.96;55.52;101381.94;4955585;28;20051;-88
2021/07/08 08:33:27;;;;;;;5.00;1.52;;;;;;;24.14;55.05;101373.88;4964158;28;20300;-90
2021/07/08 08:36:07;;;;;;;3.95;1.95;;;;;;;24.28;54.04;101380.19;4982506;28;20037;-89
2021/07/08 08:38:36;;;;;;;5.55;1.92;;;;;;;24.29;53.63;101375.72;4983802;28;20081;-89
2021/07/08 08:41:07;;;;;;;6.28;1.90;;;;;;;24.18;53.77;101372.75;4984185;28;20781;-88
2021/07/08 08:43:37;;;;;;;3.10;1.90;;;;;;;24.21;54.04;101376.13;4975854;28;20050;-90
2021/07/08 08:46:12;;;;;;;4.88;2.13;;;;;;;24.24;53.82;101378.63;4978547;28;20178;-89
2021/07/08 08:49:21;;;;;;;4.40;1.92;;;;;;;24.41;52.90;101372.34;4987132;28;20475;-88
2021/07/08 08:51:59;;;;;;;3.88;2.22;;;;;;;24.83;52.33;101385.22;4973720;28;20132;-91
2021/07/08 08:54:30;;;;;;;3.85;1.85;;;;;;;25.06;50.89;101387.41;4978746;28;20050;-92
2021/07/08 08:56:59;;;;;;;4.82;1.80;;;;;;;25.38;50.43;101397.22;4975215;28;20603;-89
2021/07/08 08:59:29;;;;;;;3.95;2.03;;;;;;;25.57;49.30;101400.50;4974180;28;20070;-92
2021/07/08 09:02:18;;;;;;;4.22;2.03;;;;;;;25.68;49.06;101401.69;4955010;28;20061;-92
2021/07/08 09:04:50;;;;;;;3.05;1.95;;;;;;;25.93;48.35;101393.00;4971890;28;20113;-91
2021/07/08 09:07:32;;;;;;;3.90;1.83;;;;;;;26.17;45.35;101379.88;4960469;28;20416;-89
2021/07/08 09:10:10;;;;;;;2.60;1.35;;;;;;;26.26;45.41;101381.13;4966280;28;20065;-92
2021/07/08 09:12:40;;;;;;;3.13;1.25;;;;;;;26.30;44.22;101388.03;4961583;28;20046;-94
2021/07/08 09:15:23;;;;;;;2.53;1.13;;;;;;;26.47;43.78;101399.50;4977209;28;20050;-91
2021/07/08 09:17:59;;;;;;;6.28;1.52;;;;;;;26.53;43.68;101399.97;4954565;28;20095;-89
2021/07/08 09:20:29;;;;;;;3.42;1.40;;;;;;;26.41;44.11;101401.63;4951844;28;20051;-91
2021/07/08 09:23:17;;;;;;;3.70;1.77;;;;;;;26.38;44.55;101392.91;4941875;28;20158;-89
2021/07/08 09:25:59;;;;;;;3.47;1.77;;;;;;;26.47;44.64;101391.47;4953622;28;20062;-91
2021/07/08 09:28:39;;;;;;;3.95;2.80;;;;;;;26.76;44.24;101388.72;4977527;28;20055;-90
2021/07/08 09:31:09;;;;;;;3.90;1.40;;;;;;;26.90;44.15;101394.03;4948601;28;20089;-87
2021/07/08 09:33:41;;;;;;;4.30;2.00;;;;;;;26.95;44.64;101375.78;4942941;28;20347;-89
2021/07/08 09:36:19;;;;;;;6.28;2.35;;;;;;;26.93;44.64;101393.81;4957897;28;20173;-88
2021/07/08 09:38:51;;;;;;;3.33;1.60;;;;;;;26.93;44.85;101396.50;4944425;28;20062;-88
2021/07/08 09:41:22;;;;;;;5.60;2.40;;;;;;;26.88;45.95;101390.59;4943688;28;20043;-89
2021/07/08 09:43:58;;;;;;;3.22;2.13;;;;;;;26.72;46.41;101402.34;4938954;28;20113;-91
2021/07/08 09:46:37;;;;;;;;;;;;;;;26.50;47.34;101402.00;4947642;28;20055;-89
2021/07/08 09:49:09;;;;;;;2.88;2.22;;;;;;;26.60;47.18;101397.75;4937181;28;20281;-89
2021/07/08 09:51:41;;;;;;;3.47;1.92;;;;;;;26.61;47.30;101401.28;4952930;28;20141;-89
2021/07/08 09:54:14;;;;;;;3.53;2.33;;;;;;;26.64;47.55;101406.47;4940992;28;20050;-87
2021/07/08 09:56:49;;;;;;;;;;;;;;;26.98;46.60;101398.91;4943832;28;20089;-88
2021/07/08 09:59:21;;;;;;;5.18;2.28;;;;;;;27.67;45.74;101396.06;4956617;28;20061;-87
2021/07/08 10:02:02;;;;;;;3.13;2.20;;;;;;;28.28;44.44;101392.69;4928591;28;20059;-89
2021/07/08 10:04:38;;;;;;;2.92;1.35;;;;;;;28.87;43.64;101389.28;4957074;28;20137;-91
2021/07/08 10:07:07;;;;;;;4.78;2.25;;;;;;;30.08;41.29;101389.00;4952996;28;21311;-87
2021/07/08 10:09:39;;;;;;;3.08;2.17;;;;;;;30.99;39.28;101392.41;4956323;28;20062;-87
2021/07/08 10:12:07;;;;;;;3.95;1.95;;;;;;;31.09;38.58;101389.78;4955136;28;20051;-88
2021/07/08 10:14:40;;;;;;;6.45;2.85;;;;;;;31.58;37.31;101389.28;4954116;28;20134;-91
2021/07/08 10:17:09;;;;;;;3.20;1.63;;;;;;;32.14;36.76;101383.44;4973480;28;20043;-91
2021/07/08 10:19:48;;;;;;;2.55;2.17;;;;;;;33.09;34.87;101383.91;4954688;28;20043;-87
2021/07/08 10:22:17;;;;;;;5.47;1.60;;;;;;;34.33;32.63;101376.72;4955143;28;20074;-87
2021/07/08 10:24:58;;;;;;;6.80;2.25;;;;;;;34.93;31.13;101381.63;4950861;28;20544;-90
2021/07/08 10:27:30;;;;;;;3.80;1.90;;;;;;;35.68;30.07;101378.44;4963093;28;20050;-90
2021/07/08 10:30:08;;;;;;;8.40;2.50;;;;;;;36.72;28.04;101368.28;4993367;28;20410;-92
2021/07/08 10:32:59;;;;;;;4.75;1.63;;;;;;;37.58;26.90;101368.75;4985902;28;20138;-87
2021/07/08 10:35:58;;;;;;;7.18;2.35;;;;;;;38.30;25.42;101366.97;4965684;28;20058;-89
2021/07/08 10:38:54;;;;;;;;;;;;;;;;;;;;;
2021/07/08 10:41:48;;;;;;;3.85;2.22;;;;;;;38.67;23.93;101361.78;4966192;28;20042;-88
2021/07/08 10:44:51;;;;;;;5.07;1.83;;;;;;;38.43;23.77;101349.16;4987651;28;20042;-87
2021/07/08 10:47:39;;;;;;;5.97;1.65;;;;;;;37.75;24.44;101349.59;4973651;28;20058;-87
2021/07/08 10:50:39;;;;;;;3.45;1.95;;;;;;;37.47;25.21;101347.31;4987556;28;22361;-86
2021/07/08 10:53:41;;;;;;;3.75;2.35;;;;;;;36.99;25.24;101340.84;4997592;28;20042;-87
2021/07/08 10:56:18;;;;;;;3.08;1.83;;;;;;;36.64;25.88;101337.44;5000538;28;20048;-90
2021/07/08 11:02:01;;;;;;;3.00;1.80;;;;;;;37.19;25.04;101336.72;4982155;28;20045;-89
2021/07/08 11:04:50;;;;;;;4.55;2.05;;;;;;;37.34;24.64;101336.94;4981597;28;20090;-88
2021/07/08 11:07:32;;;;;;;;;;;;;;;;;;;;;
2021/07/08 11:10:08;;;;;;;5.78;1.85;;;;;;;38.72;23.06;101335.63;4979021;28;20052;-87
2021/07/08 11:12:40;;;;;;;1.55;1.45;;;;;;;38.91;23.68;101341.63;5017866;28;20026;-93
2021/07/08 11:15:59;;;;;;;4.20;2.38;;;;;;;38.64;23.34;101341.09;4999973;28;20799;-91
2021/07/08 11:18:31;;;;;;;2.78;1.60;;;;;;;38.82;23.50;101337.25;4963367;28;20047;-88
2021/07/08 11:21:08;;;;;;;2.88;2.03;;;;;;;38.47;23.87;101329.44;4982788;28;20583;-92
2021/07/08 11:27:09;;;;;;;2.58;1.75;;;;;;;37.39;24.27;101320.88;4978333;28;20042;-87
2021/07/08 11:30:02;;;;;;;;;;;;;;;;;;;;;
2021/07/08 11:32:52;;;;;;;4.70;1.50;;;;;;;38.06;21.78;101321.50;4953873;28;20063;-89
2021/07/08 11:35:39;;;;;;;6.05;1.55;;;;;;;38.04;22.48;101323.53;4966621;28;20039;-90
2021/07/08 11:38:19;;;;;;;2.97;1.50;;;;;;;37.65;22.12;101318.91;4974789;28;20082;-90
2021/07/08 11:40:49;;;;;;;2.83;1.50;;;;;;;38.08;21.50;101303.00;4960955;28;20046;-89
2021/07/08 11:43:28;;;;;;;4.57;1.63;;;;;;;38.34;20.98;101304.59;4963059;28;20055;-89
2021/07/08 11:46:18;;;;;;;2.63;1.30;;;;;;;39.20;20.76;101299.78;4945663;28;20560;-87
2021/07/08 11:48:57;;;;;;;2.00;1.15;;;;;;;39.77;19.93;101297.41;4977172;28;20054;-87
2021/07/08 11:51:29;;;;;;;3.38;1.63;;;;;;;40.65;18.88;101304.72;4985302;28;20113;-88
2021/07/08 11:53:58;;;;;;;1.88;1.13;;;;;;;41.02;18.80;101297.25;4981970;28;20073;-92
2021/07/08 11:56:28;;;;;;;2.10;1.08;;;;;;;40.24;18.89;101297.97;4977342;28;20050;-89
2021/07/08 11:59:32;;;;;;;;;;;;;;;;;;;;;
2021/07/08 12:02:09;;;;;;;1.33;0.68;;;;;;;39.84;18.85;101284.66;4955456;28;20064;-89
2021/07/08 12:04:37;;;;;;;2.72;1.27;;;;;;;39.38;19.95;101282.13;4957615;28;20056;-88
2021/07/08 12:07:08;;;;;;;2.88;1.08;;;;;;;39.37;19.22;101277.69;4990776;28;20050;-90
2021/07/08 12:09:52;;;;;;;2.92;1.83;;;;;;;39.01;18.99;101279.25;4991020;28;20133;-90
2021/07/08 12:12:20;;;;;;;3.92;1.50;;;;;;;37.90;21.29;101279.53;4982007;28;20477;-90
2021/07/08 12:14:51;;;;;;;3.95;2.03;;;;;;;36.96;23.15;101272.97;4986536;28;20077;-92
2021/07/08 12:17:20;;;;;;;4.40;1.90;;;;;;;35.64;25.18;101276.28;5002200;28;20054;-90